To NAV CANADA Home Page Login to a new session Search on AWWS site Feedback and Comments Disclaimer Vers la page française équivalente Tips FAQ What's new on the site To the Forecasts and Observations / NOTAM section To "File a Flight Plan" website Publications and other links Update of the User's profile FIC Telephone Numbers My Weather Data Folder Route Weather Data Regional Weather Data Local Weather Data To the Forecasts and Observations / NOTAM section
Request Generated 01/21/2017 at 02:05:33 UTC . Weather information available at that time is displayed.

METAR/TAF

COLD LAKE/GROUP CAPTAIN R.W. MCNAIR/AB    

METAR CYOD 210200Z 00000KT 6SM BR MIFG OVC180 M05/M06 A2939 RMK AS8 SLP988=
METAR CYOD 210100Z 00000KT 6SM BR MIFG BKN160 M04/M04 A2939 RMK AC6 SLP985=
SPECI CYOD 210013Z 06002KT 6SM BR MIFG BKN150 M03/M03 A2938 RMK AC6 SLP983=
METAR CYOD 210000Z 06003KT 7SM BKN150 M03/M04 A2938 RMK AC6 SLP982=

TAF CYOD 202332Z 2100/2124 VRB03KT P6SM SCT080 BKN150
FM210400 VRB03KT 6SM BR SCT005 BKN250 TEMPO 2104/2106 3SM BR
BECMG 2106/2108 OVC004
FM210800 VRB03KT 6SM BR OVC004 TEMPO 2108/2119 5SM BR
FM211900 35005KT P6SM OVC010
RMK NXT FCST BY 210600Z=
Your time UTC time
Weather data provided by Environment Canada and NAV CANADA